createdAt,value
2018-09-05T00:00:16.496Z,19.30
2018-09-05T00:02:48.603Z,20.20
2018-09-05T00:05:20.674Z,22.37
2018-09-05T00:07:52.759Z,19.93
2018-09-05T00:10:24.841Z,17.47
2018-09-05T00:12:56.934Z,23.80
2018-09-05T00:15:28.977Z,19.43
2018-09-05T00:18:01.074Z,16.20
2018-09-05T00:20:33.159Z,19.43
2018-09-05T00:23:05.245Z,28.33
2018-09-05T00:25:37.350Z,22.63
2018-09-05T00:28:09.493Z,21.10
2018-09-05T00:30:41.593Z,24.63
2018-09-05T00:33:13.743Z,22.10
2018-09-05T00:35:45.865Z,26.57
2018-09-05T00:38:17.976Z,23.87
2018-09-05T00:40:50.069Z,24.83
2018-09-05T00:43:22.159Z,23.53
2018-09-05T00:45:54.314Z,29.67
2018-09-05T00:48:26.429Z,25.80
2018-09-05T00:50:58.539Z,26.53
2018-09-05T00:53:30.599Z,31.60
2018-09-05T00:56:02.702Z,26.73
2018-09-05T00:58:34.788Z,31.20
2018-09-05T01:01:06.866Z,31.17
2018-09-05T01:03:39.006Z,43.83
2018-09-05T01:06:11.105Z,35.63
2018-09-05T01:08:43.182Z,27.67
2018-09-05T01:11:15.283Z,28.67
2018-09-05T01:13:47.568Z,28.43
2018-09-05T01:16:19.646Z,28.33
2018-09-05T01:18:51.699Z,24.23
2018-09-05T01:21:23.874Z,35.53
2018-09-05T01:23:55.924Z,37.60
2018-09-05T01:26:28.051Z,24.67
2018-09-05T01:29:00.117Z,30.97
2018-09-05T01:31:32.316Z,35.03
2018-09-05T01:34:04.478Z,34.20
2018-09-05T01:36:36.598Z,31.80
2018-09-05T01:39:08.714Z,38.80
2018-09-05T01:41:40.760Z,40.03
2018-09-05T01:44:12.878Z,40.27
2018-09-05T01:46:44.935Z,34.10
2018-09-05T01:49:17.084Z,41.57
2018-09-05T01:51:53.777Z,29.40
2018-09-05T01:54:25.871Z,25.70
2018-09-05T01:56:58.013Z,30.03
2018-09-05T01:59:30.083Z,37.17
2018-09-05T02:02:02.194Z,44.33
2018-09-05T02:04:34.292Z,38.30
2018-09-05T02:07:06.307Z,46.90
2018-09-05T02:09:38.369Z,41.53
2018-09-05T02:12:10.486Z,32.57
2018-09-05T02:14:42.506Z,37.60
2018-09-05T02:17:14.545Z,36.30
2018-09-05T02:19:46.549Z,43.37
2018-09-05T02:22:18.556Z,37.63
2018-09-05T02:24:50.589Z,29.30
2018-09-05T02:27:22.662Z,33.53
2018-09-05T02:29:54.684Z,32.73
2018-09-05T02:32:26.780Z,27.57
2018-09-05T02:34:58.785Z,35.07
2018-09-05T02:37:31.085Z,28.60
2018-09-05T02:40:03.132Z,30.43
2018-09-05T02:42:35.213Z,27.47
2018-09-05T02:45:07.282Z,23.90
2018-09-05T02:47:39.346Z,28.47
2018-09-05T02:50:11.384Z,39.03
2018-09-05T02:52:43.458Z,44.40
2018-09-05T02:55:21.246Z,44.97
2018-09-05T02:57:53.312Z,71.10
2018-09-05T03:00:25.337Z,79.83
2018-09-05T03:02:57.377Z,86.40
2018-09-05T03:05:29.388Z,98.77
2018-09-05T03:08:01.392Z,100.27
2018-09-05T03:10:33.456Z,90.33
2018-09-05T03:13:05.481Z,97.80
2018-09-05T03:15:37.521Z,123.03
2018-09-05T03:18:09.576Z,154.87
2018-09-05T03:20:41.790Z,142.70
2018-09-05T03:23:13.830Z,161.17
2018-09-05T03:25:45.820Z,185.40
2018-09-05T03:28:17.844Z,151.63
2018-09-05T03:30:49.886Z,153.47
2018-09-05T03:33:21.959Z,160.33
2018-09-05T03:35:53.987Z,144.23
2018-09-05T03:38:26.130Z,133.80
2018-09-05T03:40:58.236Z,121.83
2018-09-05T03:43:30.272Z,159.20
2018-09-05T03:46:02.310Z,116.33
2018-09-05T03:48:34.320Z,121.77
2018-09-05T03:51:06.330Z,120.37
2018-09-05T03:53:38.376Z,116.97
2018-09-05T03:56:10.381Z,98.57
2018-09-05T03:58:42.370Z,96.70
2018-09-05T04:01:14.477Z,89.63
2018-09-05T04:03:46.494Z,95.70
2018-09-05T04:06:19.527Z,97.03
2018-09-05T04:08:52.579Z,95.60
2018-09-05T04:11:24.676Z,90.00
2018-09-05T04:13:56.721Z,82.87
2018-09-05T04:16:28.818Z,83.03
2018-09-05T04:19:00.819Z,85.80
2018-09-05T04:21:32.901Z,101.33
2018-09-05T04:24:04.891Z,105.47
2018-09-05T04:26:36.917Z,96.20
2018-09-05T04:29:08.981Z,123.37
2018-09-05T04:31:41.015Z,102.17
2018-09-05T04:34:13.083Z,121.13
2018-09-05T04:36:45.178Z,120.23
2018-09-05T04:39:17.283Z,129.00
2018-09-05T04:41:49.593Z,114.23
2018-09-05T04:44:21.626Z,121.43
2018-09-05T04:46:53.677Z,129.90
2018-09-05T04:49:25.794Z,110.50
2018-09-05T04:51:57.865Z,122.57
2018-09-05T04:54:29.890Z,126.33
2018-09-05T04:57:01.936Z,122.03
2018-09-05T04:59:34.424Z,154.50
2018-09-05T05:02:06.410Z,133.33
2018-09-05T05:04:38.595Z,134.77
2018-09-05T05:07:10.563Z,110.73
2018-09-05T05:09:42.586Z,113.10
2018-09-05T05:12:14.690Z,117.60
2018-09-05T05:14:46.880Z,110.23
2018-09-05T05:17:18.990Z,105.57
2018-09-05T05:19:50.989Z,112.37
2018-09-05T05:22:22.993Z,115.80
2018-09-05T05:24:55.052Z,108.20
2018-09-05T05:27:27.085Z,109.10
2018-09-05T05:29:59.141Z,91.57
2018-09-05T05:32:31.210Z,109.77
2018-09-05T05:35:03.278Z,108.63
2018-09-05T05:37:35.399Z,121.10
2018-09-05T05:40:07.490Z,106.37
2018-09-05T05:42:39.498Z,107.20
2018-09-05T05:45:11.504Z,109.27
2018-09-05T05:47:43.563Z,108.63
2018-09-05T05:50:15.566Z,115.03
2018-09-05T05:52:47.675Z,112.80
2018-09-05T05:55:19.778Z,121.77
2018-09-05T05:57:51.804Z,124.67
2018-09-05T06:00:25.001Z,126.33
2018-09-05T06:02:57.071Z,112.00
2018-09-05T06:05:29.115Z,102.07
2018-09-05T06:08:01.139Z,117.43
2018-09-05T06:10:33.163Z,114.70
2018-09-05T06:13:05.293Z,105.00
2018-09-05T06:15:37.872Z,108.00
2018-09-05T06:18:09.882Z,102.77
2018-09-05T06:20:41.910Z,92.50
2018-09-05T06:23:13.909Z,93.57
2018-09-05T06:25:46.002Z,92.97
2018-09-05T06:28:18.074Z,90.10
2018-09-05T06:30:50.164Z,95.87
2018-09-05T06:33:22.290Z,89.40
2018-09-05T06:35:54.337Z,95.83
2018-09-05T06:38:26.414Z,90.17
2018-09-05T06:40:58.427Z,90.70
2018-09-05T06:43:30.449Z,98.00
2018-09-05T06:46:02.543Z,90.77
2018-09-05T06:48:34.559Z,96.47
2018-09-05T06:51:07.374Z,97.60
2018-09-05T06:53:39.358Z,93.27
2018-09-05T06:56:11.417Z,100.10
2018-09-05T06:58:43.455Z,93.73
2018-09-05T07:01:15.494Z,79.30
2018-09-05T07:03:47.509Z,83.93
2018-09-05T07:06:19.531Z,84.87
2018-09-05T07:08:51.634Z,86.77
2018-09-05T07:11:23.686Z,98.93
2018-09-05T07:13:55.759Z,86.20
2018-09-05T07:16:27.780Z,89.93
2018-09-05T07:18:59.877Z,91.27
2018-09-05T07:21:31.912Z,93.20
2018-09-05T07:24:04.310Z,86.77
2018-09-05T07:26:36.780Z,80.83
2018-09-05T07:29:08.838Z,81.23
2018-09-05T07:31:40.860Z,82.57
2018-09-05T07:34:12.930Z,75.17
2018-09-05T07:36:45.068Z,79.80
2018-09-05T07:39:17.094Z,72.40
2018-09-05T07:41:49.103Z,64.10
2018-09-05T07:44:21.218Z,56.30
2018-09-05T07:46:53.253Z,58.47
2018-09-05T07:49:25.814Z,54.83
2018-09-05T07:51:57.790Z,54.40
2018-09-05T07:54:29.910Z,62.00
2018-09-05T07:57:01.969Z,58.17
2018-09-05T07:59:33.993Z,56.33
2018-09-05T08:02:06.014Z,55.33
2018-09-05T08:04:38.133Z,56.73
2018-09-05T08:07:10.210Z,64.73
2018-09-05T08:09:42.305Z,56.10
2018-09-05T08:12:14.319Z,62.33
2018-09-05T08:14:46.302Z,54.50
2018-09-05T08:17:18.457Z,54.30
2018-09-05T08:19:50.511Z,50.43
2018-09-05T08:22:22.558Z,47.43
2018-09-05T08:24:55.083Z,52.23
2018-09-05T08:27:27.158Z,45.25
2018-09-05T08:29:59.235Z,41.77
2018-09-05T08:32:31.234Z,50.00
2018-09-05T08:35:03.426Z,46.23
2018-09-05T08:37:35.479Z,45.15
2018-09-05T08:40:07.458Z,38.40
2018-09-05T08:42:39.543Z,39.70
2018-09-05T08:45:11.695Z,47.58
2018-09-05T08:47:43.725Z,49.60
2018-09-05T08:50:15.742Z,40.40
2018-09-05T08:52:47.851Z,37.85
2018-09-05T08:55:19.911Z,38.50
2018-09-05T08:57:51.910Z,32.45
2018-09-05T09:00:24.005Z,28.67
2018-09-05T09:02:56.044Z,24.92
2018-09-05T09:05:28.133Z,25.43
2018-09-05T09:08:00.157Z,34.70
2018-09-05T09:10:32.198Z,23.45
2018-09-05T09:13:04.325Z,26.23
2018-09-05T09:15:36.348Z,21.57
2018-09-05T09:18:08.701Z,25.90
2018-09-05T09:20:40.842Z,25.70
2018-09-05T09:23:12.881Z,21.65
2018-09-05T09:25:45.067Z,18.20
2018-09-05T09:28:17.155Z,21.10
2018-09-05T09:30:49.225Z,21.57
2018-09-05T09:33:21.262Z,19.52
2018-09-05T09:35:53.291Z,18.23
2018-09-05T09:38:25.346Z,20.57
2018-09-05T09:40:57.450Z,14.90
2018-09-05T09:43:29.529Z,16.95
2018-09-05T09:46:01.548Z,14.85
2018-09-05T09:48:33.607Z,18.85
2018-09-05T09:51:05.650Z,12.70
2018-09-05T09:53:37.710Z,13.08
2018-09-05T09:56:09.721Z,15.23
2018-09-05T09:58:41.805Z,18.37
2018-09-05T10:01:19.726Z,13.25
2018-09-05T10:03:57.759Z,13.53
2018-09-05T10:06:35.647Z,13.05
2018-09-05T10:09:13.861Z,12.95
2018-09-05T10:11:51.736Z,17.42
2018-09-05T10:14:29.694Z,22.48
2018-09-05T10:17:07.625Z,16.95
2018-09-05T10:19:39.627Z,12.03
2018-09-05T10:22:11.625Z,15.10
2018-09-05T10:24:43.682Z,14.78
2018-09-05T10:27:15.684Z,13.98
2018-09-05T10:29:47.732Z,14.05
2018-09-05T10:32:20.041Z,22.65
2018-09-05T10:34:52.614Z,21.62
2018-09-05T10:37:24.870Z,10.75
2018-09-05T10:39:56.877Z,15.30
2018-09-05T10:42:28.937Z,13.05
2018-09-05T10:45:00.941Z,13.35
2018-09-05T10:47:32.999Z,14.47
2018-09-05T10:50:05.131Z,13.48
2018-09-05T10:52:37.168Z,10.45
2018-09-05T10:55:09.215Z,15.23
2018-09-05T10:57:41.345Z,12.98
2018-09-05T11:00:13.418Z,16.77
2018-09-05T11:02:45.446Z,14.90
2018-09-05T11:05:17.464Z,11.83
2018-09-05T11:07:49.531Z,13.58
2018-09-05T11:10:21.618Z,14.07
2018-09-05T11:12:53.758Z,17.90
2018-09-05T11:15:25.847Z,14.28
2018-09-05T11:17:57.879Z,11.18
2018-09-05T11:20:29.984Z,14.15
2018-09-05T11:23:02.005Z,13.90
2018-09-05T11:25:34.110Z,11.60
2018-09-05T11:28:06.157Z,18.05
2018-09-05T11:30:38.207Z,11.38
2018-09-05T11:33:10.382Z,11.20
2018-09-05T11:35:42.481Z,12.55
2018-09-05T11:38:14.541Z,13.62
2018-09-05T11:40:47.068Z,10.10
2018-09-05T11:43:19.115Z,12.70
2018-09-05T11:45:51.281Z,12.60
2018-09-05T11:48:23.311Z,11.50
2018-09-05T11:50:55.378Z,11.80
2018-09-05T11:53:27.652Z,12.75
2018-09-05T11:55:59.790Z,9.68
2018-09-05T11:58:31.846Z,17.77
2018-09-05T12:01:03.957Z,10.10
2018-09-05T12:03:35.950Z,12.78
2018-09-05T12:06:08.077Z,12.80
2018-09-05T12:08:40.096Z,15.00
2018-09-05T12:11:12.190Z,14.75
2018-09-05T12:13:44.237Z,22.32
2018-09-05T12:16:16.252Z,10.68
2018-09-05T12:18:48.302Z,13.28
2018-09-05T12:21:20.471Z,12.35
2018-09-05T12:23:52.534Z,14.00
2018-09-05T12:26:24.635Z,14.47
2018-09-05T12:28:56.671Z,13.22
2018-09-05T12:31:28.724Z,10.10
2018-09-05T12:34:00.777Z,16.45
2018-09-05T12:36:32.850Z,17.57
2018-09-05T12:39:07.513Z,18.87
2018-09-05T12:41:39.936Z,13.10
2018-09-05T12:44:12.369Z,12.33
2018-09-05T12:46:44.451Z,12.80
2018-09-05T12:49:16.520Z,15.63
2018-09-05T12:51:48.545Z,10.63
2018-09-05T12:54:20.642Z,9.68
2018-09-05T12:56:52.665Z,9.40
2018-09-05T12:59:24.788Z,19.85
2018-09-05T13:01:56.776Z,14.23
2018-09-05T13:04:28.835Z,13.70
2018-09-05T13:07:00.876Z,9.93
2018-09-05T13:09:32.921Z,17.80
2018-09-05T13:12:04.942Z,13.08
2018-09-05T13:14:36.967Z,11.65
2018-09-05T13:17:09.000Z,11.12
2018-09-05T13:19:41.047Z,10.15
2018-09-05T13:22:13.081Z,11.28
2018-09-05T13:24:45.134Z,10.28
2018-09-05T13:27:17.212Z,14.23
2018-09-05T13:29:49.343Z,11.30
2018-09-05T13:32:21.357Z,9.40
2018-09-05T13:34:53.388Z,11.95
2018-09-05T13:37:25.454Z,8.30
2018-09-05T13:39:57.580Z,7.03
2018-09-05T13:42:29.638Z,13.05
2018-09-05T13:45:01.789Z,12.25
2018-09-05T13:47:33.770Z,9.55
2018-09-05T13:50:05.868Z,12.25
2018-09-05T13:52:37.969Z,18.25
2018-09-05T13:55:10.022Z,14.80
2018-09-05T13:57:42.105Z,13.03
2018-09-05T14:00:14.570Z,14.13
2018-09-05T14:02:46.994Z,8.70
2018-09-05T14:05:19.010Z,20.32
2018-09-05T14:07:51.034Z,10.10
2018-09-05T14:10:23.116Z,12.03
2018-09-05T14:12:55.140Z,11.35
2018-09-05T14:15:27.195Z,14.33
2018-09-05T14:17:59.277Z,8.73
2018-09-05T14:20:31.307Z,10.05
2018-09-05T14:23:03.377Z,9.05
2018-09-05T14:25:35.382Z,13.55
2018-09-05T14:28:07.991Z,15.10
2018-09-05T14:30:40.014Z,12.93
2018-09-05T14:33:12.287Z,10.70
2018-09-05T14:35:45.129Z,10.63
2018-09-05T14:38:17.234Z,11.43
2018-09-05T14:40:49.331Z,8.70
2018-09-05T14:43:21.389Z,8.75
2018-09-05T14:45:53.543Z,10.38
2018-09-05T14:48:25.605Z,13.35
2018-09-05T14:50:57.820Z,11.70
2018-09-05T14:53:29.844Z,13.85
2018-09-05T14:56:01.912Z,8.78
2018-09-05T14:58:33.929Z,10.38
2018-09-05T15:01:06.001Z,10.13
2018-09-05T15:03:38.037Z,12.80
2018-09-05T15:06:10.069Z,11.75
2018-09-05T15:08:42.192Z,16.27
2018-09-05T15:11:14.565Z,9.20
2018-09-05T15:13:46.934Z,8.45
2018-09-05T15:16:18.987Z,12.78
2018-09-05T15:18:51.003Z,11.40
2018-09-05T15:21:23.052Z,11.90
2018-09-05T15:23:55.185Z,10.08
2018-09-05T15:26:27.353Z,9.85
2018-09-05T15:28:59.382Z,9.98
2018-09-05T15:31:31.453Z,13.20
2018-09-05T15:34:03.464Z,10.90
2018-09-05T15:36:35.568Z,11.45
2018-09-05T15:39:08.490Z,9.30
2018-09-05T15:41:40.623Z,11.55
2018-09-05T15:44:12.660Z,11.57
2018-09-05T15:46:44.744Z,9.90
2018-09-05T15:49:16.801Z,16.55
2018-09-05T15:51:53.466Z,19.82
2018-09-05T15:54:26.265Z,13.25
2018-09-05T15:56:58.282Z,23.22
2018-09-05T15:59:30.317Z,16.55
2018-09-05T16:02:02.337Z,9.98
2018-09-05T16:04:34.452Z,13.35
2018-09-05T16:07:06.775Z,12.28
2018-09-05T16:09:38.878Z,8.98
2018-09-05T16:12:10.929Z,11.73
2018-09-05T16:14:42.964Z,14.18
2018-09-05T16:17:14.992Z,8.05
2018-09-05T16:19:47.062Z,13.75
2018-09-05T16:22:19.165Z,12.15
2018-09-05T16:24:51.183Z,11.53
2018-09-05T16:27:23.206Z,11.55
2018-09-05T16:29:55.336Z,9.50
2018-09-05T16:32:27.974Z,16.30
2018-09-05T16:35:00.037Z,6.58
2018-09-05T16:37:32.191Z,12.10
2018-09-05T16:40:04.218Z,10.20
2018-09-05T16:42:36.259Z,12.68
2018-09-05T16:45:08.293Z,10.28
2018-09-05T16:47:40.314Z,12.23
2018-09-05T16:50:12.383Z,12.53
2018-09-05T16:52:44.417Z,10.03
2018-09-05T16:55:16.519Z,11.40
2018-09-05T16:57:48.536Z,10.90
2018-09-05T17:00:20.546Z,12.45
2018-09-05T17:02:52.605Z,9.93
2018-09-05T17:05:24.664Z,16.82
2018-09-05T17:07:56.671Z,14.85
2018-09-05T17:10:29.131Z,12.10
2018-09-05T17:13:01.218Z,12.18
2018-09-05T17:15:33.253Z,16.40
2018-09-05T17:18:05.294Z,18.52
2018-09-05T17:20:37.433Z,13.35
2018-09-05T17:23:09.532Z,14.20
2018-09-05T17:25:41.571Z,14.00
2018-09-05T17:28:13.609Z,11.28
2018-09-05T17:30:45.782Z,16.75
2018-09-05T17:33:17.841Z,17.95
2018-09-05T17:35:49.862Z,14.77
2018-09-05T17:38:21.922Z,10.10
2018-09-05T17:40:53.992Z,9.23
2018-09-05T17:43:26.085Z,12.40
2018-09-05T17:45:58.129Z,16.42
2018-09-05T17:48:30.172Z,15.98
2018-09-05T17:51:02.186Z,16.17
2018-09-05T17:53:34.545Z,13.05
2018-09-05T17:56:06.626Z,17.23
2018-09-05T17:58:38.655Z,12.17
2018-09-05T18:01:14.354Z,15.40
2018-09-05T18:03:46.499Z,13.20
2018-09-05T18:06:18.650Z,13.77
2018-09-05T18:08:50.767Z,20.00
2018-09-05T18:11:22.832Z,10.23
2018-09-05T18:13:54.846Z,15.83
2018-09-05T18:16:26.850Z,19.80
2018-09-05T18:18:59.244Z,12.57
2018-09-05T18:21:31.382Z,10.13
2018-09-05T18:24:03.420Z,9.30
2018-09-05T18:26:42.377Z,13.47
2018-09-05T18:29:14.411Z,10.43
2018-09-05T18:31:46.406Z,11.93
2018-09-05T18:34:18.438Z,10.07
2018-09-05T18:36:50.668Z,11.70
2018-09-05T18:39:23.006Z,16.77
2018-09-05T18:41:55.054Z,11.30
2018-09-05T18:44:27.142Z,15.03
2018-09-05T18:46:59.138Z,14.60
2018-09-05T18:49:31.161Z,13.00
2018-09-05T18:52:03.191Z,10.37
2018-09-05T18:54:35.214Z,9.50
2018-09-05T18:57:07.237Z,14.07
2018-09-05T18:59:39.290Z,24.47
2018-09-05T19:02:11.368Z,12.97
2018-09-05T19:04:43.438Z,15.83
2018-09-05T19:07:15.477Z,17.77
2018-09-05T19:09:47.473Z,11.10
2018-09-05T19:12:19.502Z,12.97
2018-09-05T19:14:51.530Z,10.53
2018-09-05T19:17:23.604Z,13.30
2018-09-05T19:19:55.707Z,18.60
2018-09-05T19:22:27.772Z,18.50
2018-09-05T19:25:00.434Z,12.60
2018-09-05T19:27:32.470Z,11.57
2018-09-05T19:30:04.748Z,13.30
2018-09-05T19:32:36.970Z,13.43
2018-09-05T19:35:09.069Z,14.47
2018-09-05T19:37:41.148Z,12.23
2018-09-05T19:40:13.201Z,12.30
2018-09-05T19:42:45.256Z,9.80
2018-09-05T19:45:17.261Z,13.30
2018-09-05T19:47:49.351Z,10.70
2018-09-05T19:50:21.483Z,11.40
2018-09-05T19:52:53.535Z,9.50
2018-09-05T19:55:25.557Z,11.53
2018-09-05T19:57:57.650Z,12.37
2018-09-05T20:00:29.658Z,9.60
2018-09-05T20:03:01.798Z,10.47
2018-09-05T20:05:33.827Z,15.90
2018-09-05T20:08:05.914Z,10.50
2018-09-05T20:10:37.966Z,12.33
2018-09-05T20:13:10.057Z,8.60
2018-09-05T20:15:42.122Z,10.80
2018-09-05T20:18:14.243Z,11.93
2018-09-05T20:20:46.279Z,9.17
2018-09-05T20:23:18.393Z,12.30
2018-09-05T20:25:50.377Z,8.60
2018-09-05T20:28:22.420Z,10.47
2018-09-05T20:30:54.468Z,13.70
2018-09-05T20:33:26.526Z,9.43
2018-09-05T20:35:58.681Z,11.90
2018-09-05T20:38:30.746Z,14.07
2018-09-05T20:41:02.883Z,15.67
2018-09-05T20:43:34.980Z,12.37
2018-09-05T20:46:07.011Z,15.70
2018-09-05T20:48:39.096Z,14.80
2018-09-05T20:51:11.345Z,12.77
2018-09-05T20:53:43.383Z,9.57
2018-09-05T20:56:15.434Z,13.73
2018-09-05T20:58:47.535Z,13.07
2018-09-05T21:01:19.543Z,14.93
2018-09-05T21:03:51.628Z,12.27
2018-09-05T21:06:23.666Z,10.77
2018-09-05T21:08:55.667Z,9.00
2018-09-05T21:11:27.705Z,9.23
2018-09-05T21:13:59.741Z,10.60
2018-09-05T21:16:31.828Z,15.33
2018-09-05T21:19:03.869Z,14.83
2018-09-05T21:21:35.894Z,10.93
2018-09-05T21:24:07.902Z,13.10
2018-09-05T21:26:39.930Z,16.07
2018-09-05T21:29:11.930Z,17.07
2018-09-05T21:31:43.966Z,13.17
2018-09-05T21:34:16.050Z,13.40
2018-09-05T21:36:48.144Z,13.47
2018-09-05T21:39:20.226Z,10.00
2018-09-05T21:41:52.317Z,15.43
2018-09-05T21:44:24.359Z,10.70
2018-09-05T21:46:56.393Z,12.23
2018-09-05T21:49:28.404Z,11.67
2018-09-05T21:52:00.496Z,12.37
2018-09-05T21:54:32.882Z,13.73
2018-09-05T21:57:04.941Z,9.63
2018-09-05T21:59:36.916Z,12.80
2018-09-05T22:02:09.024Z,10.97
2018-09-05T22:04:41.066Z,10.50
2018-09-05T22:07:13.054Z,11.70
2018-09-05T22:09:45.080Z,11.73
2018-09-05T22:12:17.068Z,14.33
2018-09-05T22:14:49.084Z,11.80
2018-09-05T22:17:21.100Z,14.53
2018-09-05T22:19:53.140Z,13.73
2018-09-05T22:22:25.169Z,11.17
2018-09-05T22:24:57.186Z,11.70
2018-09-05T22:27:29.261Z,13.13
2018-09-05T22:30:01.306Z,10.53
2018-09-05T22:32:33.347Z,13.13
2018-09-05T22:35:05.425Z,14.53
2018-09-05T22:37:37.482Z,12.20
2018-09-05T22:40:09.493Z,12.33
2018-09-05T22:42:53.074Z,18.77
2018-09-05T22:45:36.706Z,13.03
2018-09-05T22:48:26.121Z,16.33
2018-09-05T22:51:15.808Z,12.60
2018-09-05T22:54:06.420Z,14.93
2018-09-05T22:56:56.645Z,12.00
2018-09-05T22:59:43.290Z,17.33
2018-09-05T23:02:31.978Z,12.37
2018-09-05T23:08:17.966Z,11.57
2018-09-05T23:11:01.663Z,11.10
2018-09-05T23:13:45.323Z,12.43
2018-09-05T23:17:32.359Z,12.43
2018-09-05T23:20:13.639Z,15.90
2018-09-05T23:22:57.393Z,17.40
2018-09-05T23:25:29.466Z,17.27
2018-09-05T23:28:01.527Z,15.93
2018-09-05T23:30:33.615Z,14.10
2018-09-05T23:33:05.658Z,14.93
2018-09-05T23:35:37.659Z,14.60
2018-09-05T23:38:09.745Z,12.83
2018-09-05T23:40:41.799Z,13.47
2018-09-05T23:43:13.808Z,16.27
2018-09-05T23:45:45.826Z,13.47
2018-09-05T23:48:17.871Z,15.77
2018-09-05T23:50:49.945Z,18.30
2018-09-05T23:53:22.016Z,16.97
2018-09-05T23:55:54.227Z,19.33
2018-09-05T23:58:26.342Z,23.20
